Time,TemperatureF,DewpointF,PressureIn,WindDirection,WindDirectionDegrees,WindSpeedMPH,WindSpeedGustMPH,Humidity,HourlyPrecipIn,Conditions,Clouds,dailyrainin,SoftwareType,DateUTC
2013-10-24 00:01:00,40.0,35.0,29.88,North,360,3.0,25.0,82,0.07,,---,0.23,VWS V14.01,2013-10-24 04:01:00,
2013-10-24 00:06:00,39.7,34.7,29.88,North,360,13.0,26.0,82,0.00,,---,0.00,VWS V14.01,2013-10-24 04:06:00,
2013-10-24 00:11:00,38.9,34.5,29.88,North,360,16.0,26.0,84,0.00,,---,0.00,VWS V14.01,2013-10-24 04:11:00,
2013-10-24 00:16:00,38.2,34.7,29.88,North,360,13.0,26.0,87,0.00,,---,0.00,VWS V14.01,2013-10-24 04:16:00,
2013-10-24 00:21:00,38.1,35.2,29.88,North,360,9.0,26.0,89,0.00,,---,0.00,VWS V14.01,2013-10-24 04:21:00,
2013-10-24 00:26:00,37.9,35.0,29.88,ESE,119,9.0,26.0,89,0.00,,---,0.00,VWS V14.01,2013-10-24 04:26:00,
2013-10-24 00:31:00,37.2,34.5,29.88,North,360,2.0,26.0,90,0.01,,---,0.01,VWS V14.01,2013-10-24 04:31:00,
2013-10-24 00:36:00,37.3,34.9,29.88,North,360,6.0,26.0,91,0.01,,---,0.01,VWS V14.01,2013-10-24 04:36:00,
2013-10-24 00:41:00,37.3,34.6,29.88,North,360,13.0,26.0,90,0.01,,---,0.01,VWS V14.01,2013-10-24 04:41:00,
2013-10-24 00:46:00,37.3,34.9,29.88,North,360,7.0,26.0,91,0.01,,---,0.01,VWS V14.01,2013-10-24 04:46:00,
2013-10-24 00:51:00,37.4,34.7,29.88,North,360,6.0,26.0,90,0.01,,---,0.01,VWS V14.01,2013-10-24 04:51:00,
2013-10-24 00:56:00,37.6,35.2,29.88,North,360,2.0,26.0,91,0.01,,---,0.01,VWS V14.01,2013-10-24 04:56:00,
2013-10-24 01:01:00,37.8,35.1,29.88,East,96,6.0,26.0,90,0.02,,---,0.02,VWS V14.01,2013-10-24 05:01:00,
2013-10-24 01:06:00,37.7,34.8,29.89,North,360,12.0,26.0,89,0.02,,---,0.02,VWS V14.01,2013-10-24 05:06:00,
2013-10-24 01:11:00,37.5,34.6,29.88,North,360,4.0,26.0,89,0.02,,---,0.02,VWS V14.01,2013-10-24 05:11:00,
2013-10-24 01:16:00,37.8,34.0,29.88,North,360,6.0,26.0,86,0.02,,---,0.02,VWS V14.01,2013-10-24 05:16:00,
2013-10-24 01:21:00,38.4,33.7,29.88,North,360,10.0,26.0,83,0.02,,---,0.02,VWS V14.01,2013-10-24 05:21:00,
2013-10-24 01:26:00,38.8,33.2,29.88,North,360,8.0,26.0,80,0.02,,---,0.02,VWS V14.01,2013-10-24 05:26:00,
2013-10-24 01:31:00,39.1,33.8,29.88,North,360,14.0,26.0,81,0.02,,---,0.02,VWS V14.01,2013-10-24 05:31:00,
2013-10-24 01:36:00,39.3,34.3,29.88,East,96,2.0,26.0,82,0.02,,---,0.02,VWS V14.01,2013-10-24 05:36:00,
2013-10-24 01:41:00,39.3,34.9,29.88,WNW,292,5.0,26.0,84,0.02,,---,0.02,VWS V14.01,2013-10-24 05:41:00,
2013-10-24 01:46:00,38.7,34.3,29.88,North,360,4.0,26.0,84,0.02,,---,0.02,VWS V14.01,2013-10-24 05:46:00,
2013-10-24 01:51:00,38.9,34.5,29.88,North,360,6.0,26.0,84,0.02,,---,0.02,VWS V14.01,2013-10-24 05:51:00,
2013-10-24 01:56:00,38.8,34.4,29.88,North,360,9.0,26.0,84,0.02,,---,0.02,VWS V14.01,2013-10-24 05:56:00,
2013-10-24 02:01:00,38.4,34.3,29.88,North,360,10.0,10.0,85,0.00,,---,0.02,VWS V14.01,2013-10-24 06:01:00,
2013-10-24 02:06:00,38.3,35.1,29.89,North,360,4.0,20.0,88,0.00,,---,0.02,VWS V14.01,2013-10-24 06:06:00,
2013-10-24 02:11:00,38.1,34.9,29.89,North,360,7.0,20.0,88,0.00,,---,0.02,VWS V14.01,2013-10-24 06:11:00,
2013-10-24 02:16:00,38.1,36.0,29.89,North,360,14.0,20.0,92,0.00,,---,0.02,VWS V14.01,2013-10-24 06:16:00,
2013-10-24 02:21:00,38.3,34.5,29.89,North,360,7.0,21.0,86,0.00,,---,0.02,VWS V14.01,2013-10-24 06:21:00,
2013-10-24 02:26:00,38.7,34.6,29.88,North,360,9.0,21.0,85,0.00,,---,0.02,VWS V14.01,2013-10-24 06:26:00,
2013-10-24 02:31:00,38.8,34.7,29.88,North,360,4.0,21.0,85,0.00,,---,0.02,VWS V14.01,2013-10-24 06:31:00,
2013-10-24 02:36:00,39.1,34.1,29.89,North,360,10.0,21.0,82,0.00,,---,0.02,VWS V14.01,2013-10-24 06:36:00,
2013-10-24 02:41:00,39.3,34.9,29.89,North,360,10.0,21.0,84,0.00,,---,0.02,VWS V14.01,2013-10-24 06:41:00,
2013-10-24 02:46:00,39.4,35.0,29.89,North,360,4.0,21.0,84,0.00,,---,0.02,VWS V14.01,2013-10-24 06:46:00,
2013-10-24 02:51:00,39.3,35.2,29.89,ENE,71,3.0,21.0,85,0.00,,---,0.02,VWS V14.01,2013-10-24 06:51:00,
2013-10-24 02:56:00,39.1,35.0,29.89,North,360,15.0,21.0,85,0.00,,---,0.02,VWS V14.01,2013-10-24 06:56:00,
2013-10-24 03:01:00,38.5,35.0,29.89,North,360,6.0,21.0,87,0.00,,---,0.02,VWS V14.01,2013-10-24 07:01:00,
2013-10-24 03:06:00,38.6,34.5,29.89,North,360,6.0,21.0,85,0.00,,---,0.02,VWS V14.01,2013-10-24 07:06:00,
2013-10-24 03:11:00,38.8,35.0,29.89,North,360,3.0,21.0,86,0.00,,---,0.02,VWS V14.01,2013-10-24 07:11:00,
2013-10-24 03:16:00,38.8,35.3,29.89,North,360,11.0,21.0,87,0.00,,---,0.02,VWS V14.01,2013-10-24 07:16:00,
2013-10-24 03:21:00,38.3,34.8,29.89,North,360,2.0,21.0,87,0.00,,---,0.02,VWS V14.01,2013-10-24 07:21:00,
2013-10-24 03:26:00,37.8,34.9,29.89,North,360,4.0,21.0,89,0.00,,---,0.02,VWS V14.01,2013-10-24 07:26:00,
2013-10-24 03:31:00,37.5,34.6,29.89,North,360,0.0,21.0,89,0.00,,---,0.02,VWS V14.01,2013-10-24 07:31:00,
2013-10-24 03:36:00,38.1,34.0,29.89,North,360,10.0,21.0,85,0.01,,---,0.03,VWS V14.01,2013-10-24 07:36:00,
2013-10-24 03:41:00,39.2,34.8,29.89,North,360,9.0,22.0,84,0.01,,---,0.03,VWS V14.01,2013-10-24 07:41:00,
2013-10-24 03:46:00,39.5,33.5,29.89,East,93,15.0,22.0,79,0.01,,---,0.03,VWS V14.01,2013-10-24 07:46:00,
2013-10-24 03:51:00,39.6,33.3,29.89,North,360,6.0,22.0,78,0.01,,---,0.03,VWS V14.01,2013-10-24 07:51:00,
2013-10-24 03:56:00,39.7,32.8,29.89,ENE,77,14.0,22.0,76,0.01,,---,0.03,VWS V14.01,2013-10-24 07:56:00,
2013-10-24 04:01:00,39.7,32.1,29.89,ESE,107,5.0,9.0,74,0.00,,---,0.03,VWS V14.01,2013-10-24 08:01:00,
2013-10-24 04:06:00,39.8,32.9,29.90,North,360,6.0,20.0,76,0.00,,---,0.03,VWS V14.01,2013-10-24 08:06:00,
2013-10-24 04:11:00,39.8,33.2,29.90,North,360,10.0,20.0,77,0.00,,---,0.03,VWS V14.01,2013-10-24 08:11:00,
2013-10-24 04:16:00,39.8,33.2,29.90,South,180,7.0,22.0,77,0.00,,---,0.03,VWS V14.01,2013-10-24 08:16:00,
2013-10-24 04:21:00,39.9,33.0,29.89,North,360,14.0,22.0,76,0.00,,---,0.03,VWS V14.01,2013-10-24 08:21:00,
2013-10-24 04:26:00,39.9,33.3,29.89,East,79,14.0,22.0,77,0.00,,---,0.03,VWS V14.01,2013-10-24 08:26:00,
2013-10-24 04:31:00,40.0,32.7,29.89,North,360,16.0,22.0,75,0.00,,---,0.03,VWS V14.01,2013-10-24 08:31:00,
2013-10-24 04:36:00,39.9,33.0,29.90,North,360,3.0,22.0,76,0.00,,---,0.03,VWS V14.01,2013-10-24 08:36:00,
2013-10-24 04:41:00,40.0,33.7,29.90,North,360,4.0,22.0,78,0.00,,---,0.03,VWS V14.01,2013-10-24 08:41:00,
2013-10-24 04:46:00,39.8,33.2,29.90,North,360,2.0,22.0,77,0.00,,---,0.03,VWS V14.01,2013-10-24 08:46:00,
2013-10-24 04:51:00,39.8,33.8,29.90,North,360,9.0,22.0,79,0.00,,---,0.03,VWS V14.01,2013-10-24 08:51:00,
2013-10-24 04:56:00,39.3,33.3,29.90,North,360,13.0,23.0,79,0.00,,---,0.03,VWS V14.01,2013-10-24 08:56:00,
2013-10-24 05:01:00,39.0,32.1,29.90,North,360,9.0,23.0,76,0.00,,---,0.03,VWS V14.01,2013-10-24 09:01:00,
2013-10-24 05:06:00,39.6,34.3,29.91,West,270,5.0,23.0,81,0.00,,---,0.03,VWS V14.01,2013-10-24 09:06:00,
2013-10-24 05:11:00,39.9,34.2,29.91,ESE,115,7.0,23.0,80,0.00,,---,0.03,VWS V14.01,2013-10-24 09:11:00,
2013-10-24 05:16:00,40.0,33.4,29.91,North,360,14.0,23.0,77,0.00,,---,0.03,VWS V14.01,2013-10-24 09:16:00,
2013-10-24 05:21:00,39.6,32.0,29.90,North,360,11.0,23.0,74,0.00,,---,0.03,VWS V14.01,2013-10-24 09:21:00,
2013-10-24 05:26:00,40.1,32.2,29.91,North,360,9.0,24.0,73,0.00,,---,0.03,VWS V14.01,2013-10-24 09:26:00,
2013-10-24 05:31:00,40.4,31.8,29.91,North,360,6.0,24.0,71,0.00,,---,0.03,VWS V14.01,2013-10-24 09:31:00,
2013-10-24 05:36:00,40.5,31.1,29.91,East,97,7.0,24.0,69,0.00,,---,0.03,VWS V14.01,2013-10-24 09:36:00,
2013-10-24 05:41:00,40.6,32.6,29.91,North,360,4.0,24.0,73,0.00,,---,0.03,VWS V14.01,2013-10-24 09:41:00,
2013-10-24 05:46:00,40.6,32.0,29.91,North,360,14.0,24.0,71,0.00,,---,0.03,VWS V14.01,2013-10-24 09:46:00,
2013-10-24 05:51:00,40.5,31.9,29.91,North,360,10.0,24.0,71,0.00,,---,0.03,VWS V14.01,2013-10-24 09:51:00,
2013-10-24 05:56:00,40.5,32.5,29.92,North,360,14.0,24.0,73,0.00,,---,0.03,VWS V14.01,2013-10-24 09:56:00,
2013-10-24 06:01:00,40.6,32.0,29.92,North,360,14.0,14.0,71,0.00,,---,0.03,VWS V14.01,2013-10-24 10:01:00,
2013-10-24 06:06:00,40.6,32.6,29.92,East,82,5.0,20.0,73,0.00,,---,0.03,VWS V14.01,2013-10-24 10:06:00,
2013-10-24 06:11:00,40.5,31.5,29.92,North,360,9.0,21.0,70,0.00,,---,0.03,VWS V14.01,2013-10-24 10:11:00,
2013-10-24 06:16:00,40.6,31.6,29.92,North,360,7.0,21.0,70,0.00,,---,0.03,VWS V14.01,2013-10-24 10:16:00,
2013-10-24 06:21:00,40.6,31.6,29.92,North,360,9.0,25.0,70,0.00,,---,0.03,VWS V14.01,2013-10-24 10:21:00,
2013-10-24 06:26:00,40.6,31.6,29.93,North,360,8.0,25.0,70,0.00,,---,0.03,VWS V14.01,2013-10-24 10:26:00,
2013-10-24 06:31:00,40.5,31.9,29.93,North,360,5.0,25.0,71,0.00,,---,0.03,VWS V14.01,2013-10-24 10:31:00,
2013-10-24 06:36:00,40.6,32.6,29.93,North,360,10.0,25.0,73,0.00,,---,0.03,VWS V14.01,2013-10-24 10:36:00,
2013-10-24 06:41:00,40.6,30.9,29.93,North,360,6.0,25.0,68,0.00,,---,0.03,VWS V14.01,2013-10-24 10:41:00,
2013-10-24 06:46:00,40.6,31.2,29.93,North,360,15.0,25.0,69,0.00,,---,0.03,VWS V14.01,2013-10-24 10:46:00,
2013-10-24 06:51:00,40.6,30.1,29.93,North,360,6.0,25.0,66,0.00,,---,0.03,VWS V14.01,2013-10-24 10:51:00,
2013-10-24 06:56:00,40.6,31.2,29.93,East,91,3.0,25.0,69,0.00,,---,0.03,VWS V14.01,2013-10-24 10:56:00,
2013-10-24 07:01:00,40.7,31.7,29.93,North,360,2.0,25.0,70,0.00,,---,0.03,VWS V14.01,2013-10-24 11:01:00,
2013-10-24 07:06:00,40.6,31.6,29.94,North,360,8.0,25.0,70,0.00,,---,0.03,VWS V14.01,2013-10-24 11:06:00,
2013-10-24 07:11:00,40.4,35.0,29.94,North,360,8.0,25.0,81,0.00,,---,0.03,VWS V14.01,2013-10-24 11:11:00,
2013-10-24 07:16:00,39.4,33.4,29.94,East,84,15.0,25.0,79,0.00,,---,0.03,VWS V14.01,2013-10-24 11:16:00,
2013-10-24 07:21:00,38.6,32.0,29.93,North,360,10.0,25.0,77,0.00,,---,0.03,VWS V14.01,2013-10-24 11:21:00,
2013-10-24 07:26:00,38.8,33.2,29.94,North,360,4.0,25.0,80,0.00,,---,0.03,VWS V14.01,2013-10-24 11:26:00,
2013-10-24 07:31:00,39.5,33.5,29.93,East,98,5.0,25.0,79,0.00,,---,0.03,VWS V14.01,2013-10-24 11:31:00,
2013-10-24 07:36:00,40.0,32.1,29.93,North,360,4.0,25.0,73,0.00,,---,0.03,VWS V14.01,2013-10-24 11:36:00,
2013-10-24 07:41:00,40.2,31.9,29.93,North,360,6.0,25.0,72,0.00,,---,0.03,VWS V14.01,2013-10-24 11:41:00,
2013-10-24 07:46:00,40.4,31.8,29.94,North,360,12.0,25.0,71,0.00,,---,0.03,VWS V14.01,2013-10-24 11:46:00,
2013-10-24 07:51:00,40.6,32.3,29.94,WNW,297,11.0,25.0,72,0.00,,---,0.03,VWS V14.01,2013-10-24 11:51:00,
2013-10-24 07:56:00,40.5,32.9,29.94,North,360,12.0,25.0,74,0.00,,---,0.03,VWS V14.01,2013-10-24 11:56:00,
2013-10-24 08:01:00,40.5,32.9,29.94,North,360,4.0,7.0,74,0.00,,---,0.03,VWS V14.01,2013-10-24 12:01:00,
2013-10-24 08:06:00,40.5,33.9,29.94,North,360,10.0,19.0,77,0.00,,---,0.03,VWS V14.01,2013-10-24 12:06:00,
2013-10-24 08:11:00,39.8,33.8,29.95,East,92,10.0,25.0,79,0.00,,---,0.03,VWS V14.01,2013-10-24 12:11:00,
2013-10-24 08:16:00,38.9,33.6,29.95,North,360,6.0,25.0,81,0.00,,---,0.03,VWS V14.01,2013-10-24 12:16:00,
2013-10-24 08:21:00,38.4,32.8,29.95,North,360,4.0,25.0,80,0.00,,---,0.03,VWS V14.01,2013-10-24 12:21:00,
2013-10-24 08:26:00,39.0,32.7,29.95,NW,311,14.0,25.0,78,0.00,,---,0.03,VWS V14.01,2013-10-24 12:26:00,
2013-10-24 08:31:00,39.5,32.9,29.95,North,360,20.0,25.0,77,0.00,,---,0.03,VWS V14.01,2013-10-24 12:31:00,
2013-10-24 08:36:00,39.8,33.2,29.95,North,360,5.0,25.0,77,0.00,,---,0.03,VWS V14.01,2013-10-24 12:36:00,
2013-10-24 08:41:00,39.7,34.7,29.96,East,94,9.0,25.0,82,0.00,,---,0.03,VWS V14.01,2013-10-24 12:41:00,
2013-10-24 08:46:00,39.3,34.9,29.95,North,360,23.0,25.0,84,0.00,,---,0.03,VWS V14.01,2013-10-24 12:46:00,
2013-10-24 08:51:00,38.9,35.1,29.96,North,360,18.0,25.0,86,0.00,,---,0.03,VWS V14.01,2013-10-24 12:51:00,
2013-10-24 08:56:00,38.4,34.6,29.96,North,360,7.0,25.0,86,0.00,,---,0.03,VWS V14.01,2013-10-24 12:56:00,
2013-10-24 09:01:00,38.6,34.8,29.96,ESE,108,12.0,25.0,86,0.00,,---,0.03,VWS V14.01,2013-10-24 13:01:00,
2013-10-24 09:06:00,38.9,33.0,29.96,North,360,11.0,25.0,79,0.00,,---,0.03,VWS V14.01,2013-10-24 13:06:00,
2013-10-24 09:11:00,39.3,33.7,29.96,North,360,9.0,25.0,80,0.00,,---,0.03,VWS V14.01,2013-10-24 13:11:00,
2013-10-24 09:16:00,39.5,34.2,29.96,East,92,7.0,25.0,81,0.00,,---,0.03,VWS V14.01,2013-10-24 13:16:00,
2013-10-24 09:21:00,39.5,34.8,29.97,North,360,10.0,25.0,83,0.00,,---,0.03,VWS V14.01,2013-10-24 13:21:00,
2013-10-24 09:26:00,39.5,34.8,29.97,North,360,9.0,25.0,83,0.00,,---,0.03,VWS V14.01,2013-10-24 13:26:00,
2013-10-24 09:31:00,39.2,34.2,29.97,North,360,13.0,25.0,82,0.00,,---,0.03,VWS V14.01,2013-10-24 13:31:00,
2013-10-24 09:36:00,38.9,34.5,29.97,North,360,5.0,25.0,84,0.00,,---,0.03,VWS V14.01,2013-10-24 13:36:00,
2013-10-24 09:41:00,38.6,33.9,29.97,North,360,9.0,25.0,83,0.00,,---,0.03,VWS V14.01,2013-10-24 13:41:00,
2013-10-24 09:46:00,38.6,34.5,29.97,North,360,0.0,25.0,85,0.00,,---,0.03,VWS V14.01,2013-10-24 13:46:00,
2013-10-24 09:51:00,38.4,34.6,29.97,North,360,1.0,25.0,86,0.00,,---,0.03,VWS V14.01,2013-10-24 13:51:00,
2013-10-24 09:56:00,38.2,34.4,29.97,North,360,2.0,25.0,86,0.00,,---,0.03,VWS V14.01,2013-10-24 13:56:00,
2013-10-24 10:01:00,38.3,34.5,29.97,North,360,8.0,25.0,86,0.00,,---,0.03,VWS V14.01,2013-10-24 14:01:00,
2013-10-24 10:06:00,38.5,34.7,29.97,North,360,2.0,15.0,86,0.00,,---,0.03,VWS V14.01,2013-10-24 14:06:00,
2013-10-24 10:11:00,38.8,35.0,29.97,North,360,7.0,17.0,86,0.00,,---,0.03,VWS V14.01,2013-10-24 14:11:00,
2013-10-24 10:16:00,39.0,35.2,29.97,North,360,15.0,19.0,86,0.00,,---,0.03,VWS V14.01,2013-10-24 14:16:00,
2013-10-24 10:21:00,39.1,35.0,29.97,North,360,0.0,19.0,85,0.00,,---,0.03,VWS V14.01,2013-10-24 14:21:00,
2013-10-24 10:26:00,39.2,35.1,29.97,NW,317,10.0,19.0,85,0.00,,---,0.03,VWS V14.01,2013-10-24 14:26:00,
2013-10-24 10:31:00,39.3,34.9,29.97,North,360,2.0,19.0,84,0.00,,---,0.03,VWS V14.01,2013-10-24 14:31:00,
2013-10-24 10:36:00,39.4,35.0,29.97,North,360,7.0,19.0,84,0.00,,---,0.03,VWS V14.01,2013-10-24 14:36:00,
2013-10-24 10:41:00,39.3,34.9,29.98,North,360,3.0,19.0,84,0.00,,---,0.03,VWS V14.01,2013-10-24 14:41:00,
2013-10-24 10:46:00,39.3,34.9,29.98,North,360,6.0,19.0,84,0.00,,---,0.03,VWS V14.01,2013-10-24 14:46:00,
2013-10-24 10:51:00,39.3,35.2,29.98,North,360,0.0,19.0,85,0.00,,---,0.03,VWS V14.01,2013-10-24 14:51:00,
2013-10-24 10:56:00,39.2,35.1,29.98,North,360,3.0,19.0,85,0.00,,---,0.03,VWS V14.01,2013-10-24 14:56:00,
2013-10-24 11:01:00,39.1,35.0,29.98,North,360,5.0,19.0,85,0.00,,---,0.03,VWS V14.01,2013-10-24 15:01:00,
2013-10-24 11:06:00,39.2,35.1,29.99,North,360,5.0,19.0,85,0.00,,---,0.03,VWS V14.01,2013-10-24 15:06:00,
2013-10-24 11:11:00,39.4,35.0,29.99,North,360,19.0,19.0,84,0.00,,---,0.03,VWS V14.01,2013-10-24 15:11:00,
2013-10-24 11:16:00,39.5,35.1,29.99,North,360,5.0,21.0,84,0.00,,---,0.03,VWS V14.01,2013-10-24 15:16:00,
2013-10-24 11:21:00,39.5,35.1,29.99,North,360,7.0,21.0,84,0.00,,---,0.03,VWS V14.01,2013-10-24 15:21:00,
2013-10-24 11:26:00,39.5,35.1,29.99,North,360,11.0,21.0,84,0.00,,---,0.03,VWS V14.01,2013-10-24 15:26:00,
2013-10-24 11:31:00,39.6,35.2,29.99,North,360,12.0,21.0,84,0.00,,---,0.03,VWS V14.01,2013-10-24 15:31:00,
2013-10-24 11:36:00,39.7,35.0,29.99,North,360,14.0,21.0,83,0.00,,---,0.03,VWS V14.01,2013-10-24 15:36:00,
2013-10-24 11:41:00,39.8,35.1,29.99,North,360,6.0,21.0,83,0.00,,---,0.03,VWS V14.01,2013-10-24 15:41:00,
2013-10-24 11:46:00,39.9,35.2,30.00,North,360,3.0,21.0,83,0.00,,---,0.03,VWS V14.01,2013-10-24 15:46:00,
2013-10-24 11:50:00,39.9,35.2,30.00,ESE,116,7.0,21.0,83,0.00,,---,0.03,VWS V14.01,2013-10-24 15:50:00,
2013-10-24 11:55:00,40.0,35.6,30.00,North,360,6.0,21.0,84,0.00,,---,0.03,VWS V14.01,2013-10-24 15:55:00,
2013-10-24 12:00:00,39.9,35.2,30.01,North,360,16.0,25.0,83,0.00,,---,0.03,VWS V14.01,2013-10-24 16:00:00,
2013-10-24 12:05:00,39.9,34.9,30.01,North,360,5.0,21.0,82,0.00,,---,0.03,VWS V14.01,2013-10-24 16:05:00,
2013-10-24 12:10:00,40.1,35.4,30.00,ENE,76,10.0,21.0,83,0.00,,---,0.03,VWS V14.01,2013-10-24 16:10:00,
2013-10-24 12:15:00,40.3,35.2,30.01,North,360,9.0,21.0,82,0.00,,---,0.03,VWS V14.01,2013-10-24 16:15:00,
2013-10-24 12:20:00,40.5,35.1,30.01,North,360,11.0,21.0,81,0.00,,---,0.03,VWS V14.01,2013-10-24 16:20:00,
2013-10-24 12:25:00,40.5,35.5,30.01,North,360,3.0,21.0,82,0.00,,---,0.03,VWS V14.01,2013-10-24 16:25:00,
2013-10-24 12:30:00,40.8,34.8,30.01,North,360,10.0,21.0,79,0.00,,---,0.03,VWS V14.01,2013-10-24 16:30:00,
2013-10-24 12:35:00,41.0,34.7,30.01,North,360,10.0,21.0,78,0.00,,---,0.03,VWS V14.01,2013-10-24 16:35:00,
2013-10-24 12:40:00,41.1,35.1,30.01,North,360,11.0,21.0,79,0.00,,---,0.03,VWS V14.01,2013-10-24 16:40:00,
2013-10-24 12:45:00,41.0,34.0,30.01,North,360,6.0,21.0,76,0.00,,---,0.03,VWS V14.01,2013-10-24 16:45:00,
2013-10-24 12:50:00,41.1,34.8,30.01,North,360,6.0,21.0,78,0.00,,---,0.03,VWS V14.01,2013-10-24 16:50:00,
2013-10-24 12:55:00,41.0,35.3,30.01,North,360,5.0,21.0,80,0.00,,---,0.03,VWS V14.01,2013-10-24 16:55:00,
2013-10-24 13:00:00,41.1,35.1,30.02,North,360,7.0,21.0,79,0.00,,---,0.03,VWS V14.01,2013-10-24 17:00:00,
2013-10-24 13:05:00,41.1,36.3,30.02,East,81,5.0,21.0,83,0.00,,---,0.03,VWS V14.01,2013-10-24 17:05:00,
2013-10-24 13:10:00,40.7,35.6,30.02,North,360,10.0,21.0,82,0.00,,---,0.03,VWS V14.01,2013-10-24 17:10:00,
2013-10-24 13:15:00,40.5,35.5,30.02,North,360,11.0,21.0,82,0.00,,---,0.03,VWS V14.01,2013-10-24 17:15:00,
2013-10-24 13:20:00,40.1,34.8,30.02,North,360,10.0,21.0,81,0.00,,---,0.03,VWS V14.01,2013-10-24 17:20:00,
2013-10-24 13:25:00,40.0,34.7,30.02,North,360,7.0,21.0,81,0.00,,---,0.03,VWS V14.01,2013-10-24 17:25:00,
2013-10-24 13:30:00,40.2,35.8,30.02,North,360,5.0,22.0,84,0.00,,---,0.03,VWS V14.01,2013-10-24 17:30:00,
2013-10-24 13:35:00,39.5,35.1,30.03,North,360,4.0,22.0,84,0.00,,---,0.03,VWS V14.01,2013-10-24 17:35:00,
2013-10-24 13:40:00,39.3,35.5,30.03,SSW,209,3.0,22.0,86,0.00,,---,0.03,VWS V14.01,2013-10-24 17:40:00,
2013-10-24 13:45:00,39.8,35.7,30.03,North,360,2.0,22.0,85,0.00,,---,0.03,VWS V14.01,2013-10-24 17:45:00,
2013-10-24 13:50:00,40.1,36.0,30.03,North,360,9.0,22.0,85,0.00,,---,0.03,VWS V14.01,2013-10-24 17:50:00,
2013-10-24 13:55:00,40.2,35.8,30.03,North,360,5.0,22.0,84,0.00,,---,0.03,VWS V14.01,2013-10-24 17:55:00,
2013-10-24 14:00:00,40.5,35.1,30.03,North,360,6.0,22.0,81,0.00,,---,0.03,VWS V14.01,2013-10-24 18:00:00,
2013-10-24 14:05:00,40.7,35.3,30.03,North,360,15.0,15.0,81,0.00,,---,0.03,VWS V14.01,2013-10-24 18:05:00,
2013-10-24 14:10:00,41.0,35.6,30.03,North,360,6.0,17.0,81,0.00,,---,0.03,VWS V14.01,2013-10-24 18:10:00,
2013-10-24 14:15:00,40.6,35.8,30.03,North,360,11.0,18.0,83,0.00,,---,0.03,VWS V14.01,2013-10-24 18:15:00,
2013-10-24 14:21:00,40.3,36.2,30.03,North,360,6.0,18.0,85,0.00,,---,0.03,VWS V14.01,2013-10-24 18:21:00,
2013-10-24 14:26:00,40.1,35.7,30.03,North,360,14.0,18.0,84,0.00,,---,0.03,VWS V14.01,2013-10-24 18:26:00,
2013-10-24 14:31:00,39.8,35.7,30.03,North,360,5.0,18.0,85,0.00,,---,0.03,VWS V14.01,2013-10-24 18:31:00,
2013-10-24 14:36:00,39.8,36.0,30.03,North,360,18.0,20.0,86,0.00,,---,0.03,VWS V14.01,2013-10-24 18:36:00,
2013-10-24 14:41:00,40.2,35.8,30.03,North,360,22.0,22.0,84,0.01,,---,0.04,VWS V14.01,2013-10-24 18:41:00,
2013-10-24 14:46:00,40.4,36.3,30.03,North,360,6.0,22.0,85,0.01,,---,0.04,VWS V14.01,2013-10-24 18:46:00,
2013-10-24 14:51:00,40.5,36.7,30.03,North,360,5.0,22.0,86,0.01,,---,0.04,VWS V14.01,2013-10-24 18:51:00,
2013-10-24 14:56:00,40.5,36.0,30.04,North,360,4.0,22.0,84,0.01,,---,0.04,VWS V14.01,2013-10-24 18:56:00,
2013-10-24 15:01:00,40.5,36.3,30.04,North,360,4.0,22.0,85,0.01,,---,0.04,VWS V14.01,2013-10-24 19:01:00,
2013-10-24 15:06:00,40.5,36.0,30.04,North,360,11.0,22.0,84,0.01,,---,0.04,VWS V14.01,2013-10-24 19:06:00,
2013-10-24 15:11:00,40.3,36.5,30.04,North,360,13.0,22.0,86,0.01,,---,0.04,VWS V14.01,2013-10-24 19:11:00,
2013-10-24 15:16:00,39.9,35.5,30.05,North,360,10.0,22.0,84,0.01,,---,0.04,VWS V14.01,2013-10-24 19:16:00,
2013-10-24 15:21:00,39.5,35.4,30.05,North,360,11.0,22.0,85,0.01,,---,0.04,VWS V14.01,2013-10-24 19:21:00,
2013-10-24 15:26:00,39.3,35.5,30.05,North,360,3.0,22.0,86,0.01,,---,0.04,VWS V14.01,2013-10-24 19:26:00,
2013-10-24 15:31:00,39.3,35.5,30.05,North,360,3.0,22.0,86,0.01,,---,0.04,VWS V14.01,2013-10-24 19:31:00,
2013-10-24 15:36:00,39.1,35.3,30.05,North,360,12.0,22.0,86,0.01,,---,0.04,VWS V14.01,2013-10-24 19:36:00,
2013-10-24 15:41:00,39.1,35.3,30.05,North,360,4.0,22.0,86,0.01,,---,0.04,VWS V14.01,2013-10-24 19:41:00,
2013-10-24 15:46:00,39.3,35.2,30.05,North,360,5.0,22.0,85,0.01,,---,0.04,VWS V14.01,2013-10-24 19:46:00,
2013-10-24 15:51:00,39.5,35.7,30.05,ESE,105,4.0,22.0,86,0.01,,---,0.04,VWS V14.01,2013-10-24 19:51:00,
2013-10-24 15:56:00,39.6,36.3,30.06,North,360,7.0,22.0,88,0.02,,---,0.05,VWS V14.01,2013-10-24 19:56:00,
2013-10-24 16:01:00,38.6,35.1,30.06,North,360,5.0,17.0,87,0.00,,---,0.07,VWS V14.01,2013-10-24 20:01:00,
2013-10-24 16:06:00,37.9,35.0,30.06,North,360,2.0,17.0,89,0.01,,---,0.08,VWS V14.01,2013-10-24 20:06:00,
2013-10-24 16:11:00,37.5,34.6,30.06,North,360,16.0,17.0,89,0.01,,---,0.08,VWS V14.01,2013-10-24 20:11:00,
2013-10-24 16:16:00,37.4,34.5,30.06,North,360,3.0,24.0,89,0.02,,---,0.09,VWS V14.01,2013-10-24 20:16:00,
2013-10-24 16:21:00,37.4,34.7,30.06,North,360,5.0,24.0,90,0.02,,---,0.09,VWS V14.01,2013-10-24 20:21:00,
2013-10-24 16:26:00,37.4,34.7,30.06,North,360,6.0,24.0,90,0.03,,---,0.10,VWS V14.01,2013-10-24 20:26:00,
2013-10-24 16:31:00,37.7,35.3,30.06,North,360,4.0,24.0,91,0.04,,---,0.11,VWS V14.01,2013-10-24 20:31:00,
2013-10-24 16:36:00,37.9,35.5,30.07,North,360,2.0,24.0,91,0.04,,---,0.11,VWS V14.01,2013-10-24 20:36:00,
2013-10-24 16:41:00,37.7,35.3,30.07,West,266,9.0,24.0,91,0.05,,---,0.12,VWS V14.01,2013-10-24 20:41:00,
2013-10-24 16:46:00,37.7,35.3,30.07,North,360,11.0,24.0,91,0.06,,---,0.13,VWS V14.01,2013-10-24 20:46:00,
2013-10-24 16:51:00,37.9,35.2,30.07,East,80,11.0,24.0,90,0.06,,---,0.13,VWS V14.01,2013-10-24 20:51:00,